| time (UTC) | temp C | wind direction | speed KPH | gust KPH | rain 1hr cm | rain 24hr cm | rain mn cm | humidity % | barometer mb |
| 20260507200015 | 10 | 169 | 3.2 | 8.0 | 0.00 | 0.56 | 0.56 | 92 | 1008.6 |
| 20260507194522 | 10 | 154 | 0.0 | 3.2 | 0.00 | 0.56 | 0.56 | 92 | 1008.5 |
| 20260507193017 | 10 | 154 | 1.6 | 8.0 | 0.00 | 0.56 | 0.56 | 91 | 1008.3 |
| 20260507191512 | 10 | 92 | 1.6 | 4.8 | 0.00 | 0.56 | 0.56 | 91 | 1007.9 |
| 20260507190012 | 10 | 319 | 1.6 | 3.2 | 0.00 | 0.56 | 0.56 | 90 | 1007.5 |
| 20260507184504 | 10 | 312 | 0.0 | 6.4 | 0.20 | 0.56 | 0.56 | 90 | 1007.1 |
| 20260507183005 | 10 | 87 | 1.6 | 4.8 | 0.20 | 0.56 | 0.56 | 89 | 1006.8 |
| 20260507181600 | 10 | 360 | 3.2 | 14.5 | 0.28 | 0.56 | 0.56 | 87 | 1006.6 |
| 20260507180059 | 10 | 21 | 8.0 | 20.9 | 0.51 | 0.56 | 0.56 | 86 | 1006.4 |
| 20260507174602 | 11 | 5 | 4.8 | 20.9 | 0.36 | 0.36 | 0.36 | 83 | 1006.4 |
| 20260507173125 | 11 | 17 | 9.7 | 24.1 | 0.36 | 0.36 | 0.36 | 82 | 1005.7 |
| 20260507171547 | 12 | 360 | 16.1 | 32.2 | 0.28 | 0.28 | 0.28 | 76 | 1005.6 |
| 20260507170044 | 16 | 346 | 14.5 | 40.2 | 0.05 | 0.05 | 0.05 | 67 | 1004.7 |
| 20260507164542 | 17 | 337 | 14.5 | 24.1 | 0.00 | 0.00 | 0.00 | 57 | 1003.7 |
| 20260507163042 | 20 | 5 | 14.5 | 27.4 | 0.00 | 0.00 | 0.00 | 51 | 1002.7 |
| 20260507161548 | 21 | 184 | 8.0 | 17.7 | 0.00 | 0.00 | 0.00 | 43 | 1002.4 |
| 20260507160047 | 23 | 178 | 8.0 | 14.5 | 0.00 | 0.00 | 0.00 | 42 | 1002.2 |
| 20260507154540 | 22 | 167 | 4.8 | 14.5 | 0.00 | 0.00 | 0.00 | 46 | 1002.0 |
| 20260507153039 | 22 | 175 | 8.0 | 17.7 | 0.00 | 0.00 | 0.00 | 48 | 1002.0 |
| 20260507151537 | 22 | 98 | 9.7 | 24.1 | 0.00 | 0.00 | 0.00 | 48 | 1002.0 |
| 20260507150040 | 22 | 133 | 8.0 | 19.3 | 0.00 | 0.00 | 0.00 | 46 | 1002.0 |
| 20260507144535 | 23 | 86 | 11.3 | 24.1 | 0.00 | 0.00 | 0.00 | 46 | 1002.0 |
| 20260507143043 | 23 | 188 | 6.4 | 22.5 | 0.00 | 0.00 | 0.00 | 46 | 1002.2 |
| 20260507141546 | 23 | 154 | 8.0 | 20.9 | 0.00 | 0.00 | 0.00 | 46 | 1002.1 |
| 20260507140034 | 22 | 169 | 9.7 | 19.3 | 0.00 | 0.00 | 0.00 | 48 | 1002.2 |
| 20260507134534 | 22 | 146 | 11.3 | 20.9 | 0.00 | 0.00 | 0.00 | 49 | 1002.2 |
| 20260507133052 | 22 | 146 | 8.0 | 25.7 | 0.00 | 0.00 | 0.00 | 46 | 1002.5 |
| 20260507131533 | 23 | 168 | 9.7 | 19.3 | 0.00 | 0.00 | 0.00 | 40 | 1002.7 |
| 20260507130034 | 23 | 173 | 8.0 | 17.7 | 0.00 | 0.00 | 0.00 | 43 | 1002.8 |
| 20260507124528 | 22 | 134 | 9.7 | 16.1 | 0.00 | 0.00 | 0.00 | 44 | 1003.0 |
| 20260507123036 | 21 | 142 | 11.3 | 19.3 | 0.00 | 0.00 | 0.00 | 46 | 1003.2 |
| 20260507121526 | 21 | 150 | 11.3 | 19.3 | 0.00 | 0.00 | 0.00 | 45 | 1003.3 |
| 20260507120025 | 22 | 94 | 8.0 | 17.7 | 0.00 | 0.00 | 0.00 | 43 | 1003.4 |
| 20260507114524 | 23 | 92 | 4.8 | 16.1 | 0.00 | 0.00 | 0.00 | 38 | 1003.5 |
| 20260507113023 | 22 | 209 | 4.8 | 12.9 | 0.00 | 0.00 | 0.00 | 42 | 1003.6 |
| 20260507111523 | 22 | 166 | 6.4 | 17.7 | 0.00 | 0.00 | 0.00 | 41 | 1003.7 |
| 20260507110021 | 23 | 79 | 9.7 | 16.1 | 0.00 | 0.00 | 0.00 | 40 | 1003.8 |
| 20260507104518 | 22 | 175 | 6.4 | 16.1 | 0.00 | 0.00 | 0.00 | 45 | 1003.9 |
| 20260507103015 | 22 | 341 | 3.2 | 11.3 | 0.00 | 0.00 | 0.00 | 43 | 1004.1 |
| 20260507101512 | 22 | 175 | 3.2 | 11.3 | 0.00 | 0.00 | 0.00 | 50 | 1004.2 |
| 20260507100009 | 21 | 177 | 4.8 | 12.9 | 0.00 | 0.00 | 0.00 | 51 | 1004.3 |
| 20260507094507 | 21 | 181 | 4.8 | 9.7 | 0.00 | 0.00 | 0.00 | 52 | 1004.5 |
| 20260507093005 | 21 | 55 | 3.2 | 12.9 | 0.00 | 0.00 | 0.00 | 54 | 1004.5 |
| 20260507091503 | 20 | 99 | 6.4 | 14.5 | 0.00 | 0.00 | 0.00 | 55 | 1004.6 |
| 20260507090105 | 20 | 192 | 4.8 | 12.9 | 0.00 | 0.00 | 0.00 | 55 | 1004.6 |
| 20260507084558 | 18 | 113 | 3.2 | 12.9 | 0.00 | 0.00 | 0.00 | 59 | 1004.6 |
| 20260507083048 | 17 | 71 | 3.2 | 9.7 | 0.00 | 0.00 | 0.00 | 67 | 1004.6 |
| 20260507081544 | 16 | 5 | 1.6 | 6.4 | 0.00 | 0.00 | 0.00 | 69 | 1004.4 |
| 20260507080040 | 16 | 136 | 1.6 | 6.4 | 0.00 | 0.00 | 0.00 | 73 | 1004.5 |
| 20260507074537 | 16 | 146 | 1.6 | 3.2 | 0.00 | 0.00 | 0.00 | 75 | 1004.5 |
| 20260507073034 | 15 | 146 | 0.0 | 3.2 | 0.00 | 0.00 | 0.00 | 76 | 1004.3 |
| 20260507071534 | 15 | 134 | 0.0 | 3.2 | 0.00 | 0.00 | 0.00 | 78 | 1004.2 |
| 20260507070041 | 14 | 126 | 1.6 | 4.8 | 0.00 | 0.00 | 0.00 | 80 | 1004.0 |
| 20260507064528 | 13 | 5 | 0.0 | 3.2 | 0.00 | 0.00 | 0.00 | 82 | 1003.8 |
| 20260507063028 | 13 | 5 | 0.0 | 4.8 | 0.00 | 0.00 | 0.00 | 82 | 1003.9 |
| 20260507061526 | 13 | 344 | 0.0 | 3.2 | 0.00 | 0.00 | 0.00 | 82 | 1003.9 |
| 20260507060030 | 13 | 327 | 0.0 | 3.2 | 0.00 | 0.00 | 0.00 | 82 | 1003.7 |
| 20260507054523 | 12 | 306 | 0.0 | 3.2 | 0.00 | 0.00 | 0.00 | 82 | 1003.6 |
| 20260507053022 | 12 | 306 | 0.0 | 1.6 | 0.00 | 0.00 | 0.00 | 81 | 1003.5 |
| 20260507051520 | 12 | 125 | 0.0 | 1.6 | 0.00 | 0.00 | 0.00 | 81 | 1003.5 |
| 20260507050026 | 12 | 355 | 0.0 | 3.2 | 0.00 | 0.00 | 0.00 | 80 | 1003.2 |
| 20260507044516 | 13 | 355 | 1.6 | 4.8 | 0.00 | 0.00 | 0.00 | 79 | 1003.0 |
| 20260507043014 | 13 | 348 | 0.0 | 3.2 | 0.00 | 0.00 | 0.00 | 78 | 1002.9 |
| 20260507041513 | 13 | 347 | 0.0 | 6.4 | 0.00 | 0.00 | 0.00 | 77 | 1002.8 |
| 20260507040010 | 13 | 344 | 1.6 | 4.8 | 0.00 | 0.00 | 0.00 | 77 | 1002.8 |
| 20260507034510 | 13 | 344 | 0.0 | 6.4 | 0.00 | 0.00 | 0.00 | 76 | 1002.5 |
| 20260507033010 | 13 | 171 | 0.0 | 9.7 | 0.00 | 0.00 | 0.00 | 77 | 1002.6 |
| 20260507031506 | 13 | 144 | 6.4 | 11.3 | 0.00 | 0.00 | 0.00 | 76 | 1002.2 |
| 20260507030005 | 13 | 130 | 4.8 | 9.7 | 0.00 | 0.00 | 0.00 | 75 | 1002.4 |
| 20260507024507 | 14 | 162 | 4.8 | 16.1 | 0.00 | 0.00 | 0.00 | 74 | 1002.3 |
| 20260507023002 | 13 | 134 | 9.7 | 16.1 | 0.00 | 0.00 | 0.00 | 74 | 1002.2 |
| 20260507021601 | 13 | 148 | 1.6 | 6.4 | 0.00 | 0.00 | 0.00 | 75 | 1002.4 |
| 20260507014605 | 14 | 160 | 3.2 | 9.7 | 0.00 | 0.00 | 0.00 | 76 | 1002.5 |
| 20260507013102 | 14 | 184 | 4.8 | 11.3 | 0.00 | 0.00 | 0.00 | 76 | 1002.4 |
| 20260507011558 | 14 | 168 | 8.0 | 11.3 | 0.00 | 0.00 | 0.00 | 76 | 1002.4 |
| 20260507010053 | 14 | 136 | 4.8 | 11.3 | 0.00 | 0.00 | 0.00 | 75 | 1002.4 |
| 20260507004552 | 15 | 168 | 8.0 | 16.1 | 0.00 | 0.00 | 0.00 | 75 | 1002.4 |
| 20260507003050 | 15 | 175 | 4.8 | 16.1 | 0.00 | 0.00 | 0.00 | 74 | 1002.3 |
| 20260507001549 | 15 | 205 | 4.8 | 16.1 | 0.00 | 0.00 | 0.00 | 74 | 1002.3 |
| 20260507000048 | 15 | 213 | 9.7 | 19.3 | 0.00 | 0.00 | 0.00 | 73 | 1002.4 |
| 20260506234553 | 15 | 192 | 8.0 | 16.1 | 0.00 | 0.00 | 0.00 | 74 | 1002.4 |
| 20260506233049 | 15 | 179 | 9.7 | 19.3 | 0.00 | 0.00 | 0.00 | 75 | 1002.3 |
| 20260506231544 | 15 | 189 | 6.4 | 14.5 | 0.00 | 0.00 | 0.00 | 74 | 1002.5 |
| 20260506230035 | 15 | 204 | 3.2 | 8.0 | 0.00 | 0.00 | 0.00 | 74 | 1002.7 |
| 20260506224534 | 15 | 184 | 0.0 | 8.0 | 0.00 | 0.00 | 0.00 | 74 | 1002.6 |
| 20260506223029 | 15 | 242 | 3.2 | 8.0 | 0.00 | 0.00 | 0.00 | 74 | 1002.4 |
| 20260506221527 | 15 | 192 | 3.2 | 8.0 | 0.00 | 0.00 | 0.00 | 75 | 1002.3 |
| 20260506220025 | 15 | 199 | 3.2 | 6.4 | 0.00 | 0.00 | 0.00 | 75 | 1002.1 |
| 20260506214525 | 15 | 246 | 3.2 | 6.4 | 0.00 | 0.00 | 0.00 | 75 | 1002.0 |
| 20260506213024 | 15 | 241 | 4.8 | 11.3 | 0.00 | 0.00 | 0.00 | 75 | 1002.0 |
| 20260506211525 | 15 | 232 | 1.6 | 6.4 | 0.00 | 0.00 | 0.00 | 76 | 1002.1 |
| 20260506210028 | 15 | 175 | 0.0 | 6.4 | 0.00 | 0.00 | 0.00 | 75 | 1001.9 |
| 20260506204522 | 15 | 190 | 3.2 | 6.4 | 0.00 | 0.00 | 0.00 | 75 | 1001.9 |
| 20260506203032 | 15 | 198 | 3.2 | 8.0 | 0.00 | 0.00 | 0.00 | 74 | 1001.8 |
| 20260506201521 | 15 | 195 | 3.2 | 9.7 | 0.00 | 0.00 | 0.00 | 73 | 1001.8 |